Chicago, Illinois
Traffic Map
Current Weather Conditions
Chicago, Illinois
Broken Clouds
Broken Clouds
16°
Feels Like: 16°
Wind Chill: 16° Ceiling: 9000
Heat Index: 16° Visibility: 10mi
Dew Point: 10° Wind: 0mph
Humidity: 67% Direction: ° ()
Pressure: 30.02in Gusts: 0mph
Raw Report DataKMDW 181053Z 00000KT 10SM SCT075 BKN090 BKN250 16/10 A3002 RMK AO2 SLP160 T01610100
Traffic Incident Summary
Active as of:
Severity:
Category:
InformationThere was an issue retrieving the traffic information for this location. Please try a different location or try again shortly.
Advertisements
Track Severe Weather on mobile